Time;durP1;ratioP1;P1;durP2;ratioP2;P2;SDS_P1;SDS_P2;PMS_P1;PMS_P2;Temp;Humidity;BMP_temperature;BMP_pressure;BME280_temperature;BME280_humidity;BME280_pressure;Samples;Min_cycle;Max_cycle;Signal;HPM_P1;HPM_P2
2022/09/24 00:02:41;;;;;;;14.32;9.65;;;;;;;13.11;66.28;100146.31;10342447;28;20054;-78
2022/09/24 00:07:45;;;;;;;12.70;9.75;;;;;;;13.05;66.31;100142.34;10355410;28;20064;-78
2022/09/24 00:12:48;;;;;;;12.82;10.63;;;;;;;12.99;66.56;100145.63;10341334;28;20513;-78
2022/09/24 00:17:51;;;;;;;15.65;9.80;;;;;;;13.05;66.41;100141.47;10311096;28;20073;-78
2022/09/24 00:22:55;;;;;;;17.35;10.68;;;;;;;13.09;66.48;100136.66;10343819;28;20077;-78
2022/09/24 00:27:58;;;;;;;11.63;9.80;;;;;;;13.03;66.22;100130.88;10332852;28;20050;-77
2022/09/24 00:33:01;;;;;;;12.30;10.02;;;;;;;13.04;65.87;100137.09;10343350;28;20140;-77
2022/09/24 00:38:05;;;;;;;16.33;9.85;;;;;;;13.09;65.88;100133.97;10339551;28;20042;-78
2022/09/24 00:43:23;;;;;;;11.75;9.93;;;;;;;13.14;66.15;100126.31;10349210;28;20073;-77
2022/09/24 00:48:26;;;;;;;11.73;10.27;;;;;;;13.08;67.72;100125.00;10342779;28;20058;-77
2022/09/24 00:53:32;;;;;;;13.43;10.45;;;;;;;12.98;68.26;100118.81;10365311;28;20046;-78
2022/09/24 00:58:35;;;;;;;14.77;11.10;;;;;;;12.89;68.25;100119.69;10359513;28;20902;-78
2022/09/24 01:03:41;;;;;;;12.65;10.48;;;;;;;12.86;68.77;100128.06;10355834;28;20049;-77
2022/09/24 01:08:46;;;;;;;13.70;11.43;;;;;;;12.77;70.10;100119.84;10321429;28;20065;-77
2022/09/24 01:14:03;;;;;;;19.65;12.27;;;;;;;12.74;70.55;100120.13;10347965;28;20061;-78
2022/09/24 01:19:22;;;;;;;13.23;11.05;;;;;;;12.70;70.51;100107.97;10356037;28;20046;-78
2022/09/24 01:24:43;;;;;;;16.67;11.57;;;;;;;12.73;70.98;100107.66;10351127;28;20432;-78
2022/09/24 01:30:09;;;;;;;13.55;11.15;;;;;;;12.73;71.54;100106.81;10347649;28;20065;-78
2022/09/24 01:35:20;;;;;;;17.75;12.15;;;;;;;12.72;71.79;100115.88;10391434;28;20054;-78
2022/09/24 01:40:27;;;;;;;13.70;11.60;;;;;;;12.60;71.96;100112.50;10394214;28;20034;-77
2022/09/24 01:45:33;;;;;;;16.65;12.70;;;;;;;12.51;71.80;100108.84;10371332;28;20058;-78
2022/09/24 01:50:42;;;;;;;14.73;11.68;;;;;;;12.52;72.08;100105.13;10395999;28;20062;-78
2022/09/24 01:55:50;;;;;;;15.05;11.40;;;;;;;12.51;72.15;100097.22;10376320;28;20542;-77
2022/09/24 02:01:03;;;;;;;13.27;11.60;;;;;;;12.43;73.08;100097.94;10402101;28;20052;-78
2022/09/24 02:06:12;;;;;;;16.25;12.02;;;;;;;12.45;73.38;100095.06;10413758;28;20037;-77
2022/09/24 02:11:17;;;;;;;15.25;11.70;;;;;;;12.45;73.36;100095.06;10412068;28;20513;-77
2022/09/24 02:16:27;;;;;;;15.43;12.50;;;;;;;12.39;72.86;100089.25;10416711;28;20128;-78
2022/09/24 02:21:32;;;;;;;14.15;12.38;;;;;;;12.37;72.88;100093.97;10385566;28;20053;-78
2022/09/24 02:26:35;;;;;;;15.57;12.13;;;;;;;12.34;73.30;100096.94;10385511;28;20080;-77
2022/09/24 02:31:42;;;;;;;18.58;12.50;;;;;;;12.28;73.27;100091.25;10410840;28;20120;-77
2022/09/24 02:36:45;;;;;;;18.80;12.40;;;;;;;12.21;72.75;100088.28;10379826;28;20092;-78
2022/09/24 02:41:50;;;;;;;14.77;12.38;;;;;;;12.23;72.67;100091.69;10407175;28;20125;-78
2022/09/24 02:46:54;;;;;;;16.92;12.77;;;;;;;12.27;72.45;100079.63;10408817;28;20064;-76
2022/09/24 02:51:58;;;;;;;15.75;13.02;;;;;;;12.26;72.04;100077.94;10443597;28;20153;-77
2022/09/24 02:57:01;;;;;;;15.73;12.40;;;;;;;12.21;71.87;100082.03;10429141;28;20052;-78
2022/09/24 03:02:06;;;;;;;15.30;12.40;;;;;;;12.18;71.65;100075.09;10404997;28;20038;-78
2022/09/24 03:07:10;;;;;;;14.48;12.32;;;;;;;12.19;71.49;100070.56;10382846;28;20064;-78
2022/09/24 03:12:13;;;;;;;18.77;12.52;;;;;;;12.14;71.44;100065.59;10415212;28;20498;-78
2022/09/24 03:17:17;;;;;;;18.00;12.40;;;;;;;12.14;71.44;100065.59;10400611;28;20072;-78
2022/09/24 03:22:20;;;;;;;13.73;11.82;;;;;;;12.16;71.57;100061.75;10400674;28;20084;-78
2022/09/24 03:27:23;;;;;;;14.75;12.50;;;;;;;12.15;71.17;100056.53;10407327;28;20046;-77
2022/09/24 03:32:28;;;;;;;15.40;11.90;;;;;;;12.16;71.01;100063.63;10381066;28;20038;-77
2022/09/24 03:37:32;;;;;;;16.08;12.52;;;;;;;12.11;70.59;100064.03;10393868;28;20065;-79
2022/09/24 03:42:35;;;;;;;16.20;12.07;;;;;;;11.86;71.16;100065.44;10376977;28;20116;-78
2022/09/24 03:47:41;;;;;;;17.48;12.27;;;;;;;11.81;71.84;100059.63;10383369;28;20060;-78
2022/09/24 03:52:44;;;;;;;14.02;11.10;;;;;;;12.00;71.99;100055.25;10387602;28;20072;-79
2022/09/24 03:57:46;;;;;;;17.42;12.82;;;;;;;12.04;71.21;100049.47;10390911;28;20069;-78
2022/09/24 04:02:51;;;;;;;15.55;12.73;;;;;;;12.03;71.22;100050.44;10394245;28;20068;-78
2022/09/24 04:07:53;;;;;;;14.48;12.07;;;;;;;12.04;71.10;100051.28;10396569;28;20374;-78
2022/09/24 04:12:56;;;;;;;16.05;12.30;;;;;;;12.05;71.74;100047.59;10379265;28;20069;-78
2022/09/24 04:18:00;;;;;;;14.88;13.10;;;;;;;11.99;72.32;100032.03;10399842;28;20129;-78
2022/09/24 04:23:04;;;;;;;19.33;15.02;;;;;;;11.87;73.53;100034.84;10381571;28;20080;-78
2022/09/24 04:28:08;;;;;;;16.85;13.75;;;;;;;11.72;74.31;100044.34;10393207;28;20087;-78
2022/09/24 04:33:12;;;;;;;16.75;14.18;;;;;;;11.62;75.33;100047.00;10385434;28;20120;-79
2022/09/24 04:38:15;;;;;;;19.92;14.13;;;;;;;11.48;76.29;100044.72;10397076;28;20073;-77
2022/09/24 04:43:18;;;;;;;22.15;15.45;;;;;;;11.45;77.23;100036.94;10406309;28;20172;-78
2022/09/24 04:48:22;;;;;;;;;;;;;;;11.38;78.15;100035.78;10382974;28;20069;-78
2022/09/24 04:53:26;;;;;;;20.65;15.60;;;;;;;11.31;78.75;100026.56;10404663;28;19967;-78
2022/09/24 04:58:29;;;;;;;22.88;16.98;;;;;;;11.36;79.56;100035.94;10403159;28;20077;-78
2022/09/24 05:03:33;;;;;;;22.10;16.10;;;;;;;11.36;79.48;100038.63;10370590;28;20053;-78
2022/09/24 05:08:35;;;;;;;22.98;17.42;;;;;;;11.36;80.12;100035.06;10409618;28;20045;-78
2022/09/24 05:13:38;;;;;;;;;;;;;;;11.30;80.38;100040.97;10365071;28;20057;-77
2022/09/24 05:18:42;;;;;;;23.60;15.90;;;;;;;11.34;81.17;100045.97;10413137;28;19924;-77
2022/09/24 05:23:45;;;;;;;25.33;16.30;;;;;;;11.35;81.36;100052.19;10386720;28;20174;-77
2022/09/24 05:28:48;;;;;;;20.55;17.05;;;;;;;11.30;81.60;100051.75;10405071;28;20566;-77
2022/09/24 05:33:53;;;;;;;23.10;15.82;;;;;;;11.35;82.07;100062.94;10388448;28;20046;-78
2022/09/24 05:38:56;;;;;;;22.23;17.27;;;;;;;11.29;81.78;100064.34;10398136;28;20128;-78
2022/09/24 05:43:58;;;;;;;21.27;16.83;;;;;;;11.25;82.50;100066.47;10396499;28;20045;-77
2022/09/24 05:49:03;;;;;;;;;;;;;;;11.37;83.20;100064.50;10407950;28;20091;-78
2022/09/24 05:54:06;;;;;;;25.45;17.38;;;;;;;11.41;83.40;100078.53;10410685;28;19947;-79
2022/09/24 05:59:09;;;;;;;26.48;19.25;;;;;;;11.38;83.41;100087.75;10391979;28;20050;-78
2022/09/24 06:04:14;;;;;;;25.30;18.65;;;;;;;11.16;83.29;100088.78;10402854;28;20456;-77
2022/09/24 06:09:17;;;;;;;23.73;17.60;;;;;;;11.27;84.10;100080.63;10400263;28;20050;-77
2022/09/24 06:14:20;;;;;;;26.42;19.00;;;;;;;11.26;84.54;100092.34;10375412;28;20130;-78
2022/09/24 06:19:24;;;;;;;26.02;19.55;;;;;;;11.13;83.51;100093.56;10390944;28;20081;-78
2022/09/24 06:24:27;;;;;;;23.95;19.63;;;;;;;11.09;84.46;100092.13;10400690;28;20068;-79
2022/09/24 06:29:30;;;;;;;27.33;21.15;;;;;;;11.15;84.68;100092.44;10405560;28;20100;-79
2022/09/24 06:34:34;;;;;;;29.00;21.15;;;;;;;11.25;85.22;100098.72;10384104;28;20046;-79
2022/09/24 06:39:37;;;;;;;29.38;20.58;;;;;;;11.26;84.95;100094.19;10397059;28;20087;-79
2022/09/24 06:44:41;;;;;;;30.23;22.05;;;;;;;11.07;84.57;100097.63;10401101;28;20046;-78
2022/09/24 06:49:45;;;;;;;32.15;23.13;;;;;;;10.95;85.91;100088.78;10407616;28;20051;-78
2022/09/24 06:54:48;;;;;;;33.17;24.10;;;;;;;11.13;86.56;100090.88;10406714;28;20087;-78
2022/09/24 06:59:51;;;;;;;30.95;22.50;;;;;;;11.16;86.16;100098.66;10394037;28;20094;-78
2022/09/24 07:04:55;;;;;;;25.58;19.63;;;;;;;11.17;87.11;100098.56;10398178;28;20087;-77
2022/09/24 07:10:00;;;;;;;26.58;19.15;;;;;;;11.46;87.82;100089.72;10397427;28;20084;-78
2022/09/24 07:15:04;;;;;;;25.13;19.58;;;;;;;11.53;87.14;100098.94;10391112;28;20108;-78
2022/09/24 07:20:09;;;;;;;22.27;17.67;;;;;;;11.59;87.97;100094.84;10374091;28;20427;-78
2022/09/24 07:25:13;;;;;;;27.40;18.92;;;;;;;11.61;87.28;100101.81;10400103;28;20558;-78
2022/09/24 07:30:16;;;;;;;26.67;19.52;;;;;;;11.59;87.60;100102.94;10388259;28;20049;-78
2022/09/24 07:35:20;;;;;;;33.97;23.25;;;;;;;11.68;87.84;100099.41;10394413;28;20042;-78
2022/09/24 07:40:24;;;;;;;31.55;22.90;;;;;;;11.69;87.71;100103.81;10391506;28;20054;-78
2022/09/24 07:45:28;;;;;;;33.25;24.90;;;;;;;11.78;88.34;100112.88;10390600;28;20041;-79
2022/09/24 07:50:34;;;;;;;36.22;25.65;;;;;;;11.70;87.74;100103.66;10390601;28;20037;-78
2022/09/24 07:55:39;;;;;;;38.33;27.92;;;;;;;11.92;88.50;100107.09;10386008;28;20151;-79
2022/09/24 08:00:43;;;;;;;35.28;26.75;;;;;;;11.91;88.01;100108.09;10381773;28;20049;-78
2022/09/24 08:05:47;;;;;;;34.35;26.27;;;;;;;11.88;87.90;100108.38;10399203;28;20041;-78
2022/09/24 08:10:50;;;;;;;34.42;26.10;;;;;;;12.05;88.44;100105.00;10390727;28;20074;-78
2022/09/24 08:15:57;;;;;;;37.10;28.08;;;;;;;12.03;87.77;100115.03;10386040;28;20034;-78
2022/09/24 08:21:05;;;;;;;40.53;27.88;;;;;;;11.99;87.68;100116.31;10400598;28;20039;-77
2022/09/24 08:26:08;;;;;;;42.22;28.00;;;;;;;12.13;87.19;100118.59;10392833;28;20514;-78
2022/09/24 08:31:13;;;;;;;35.88;28.38;;;;;;;12.15;89.30;100116.63;10396210;28;20049;-79
2022/09/24 08:36:18;;;;;;;38.47;27.00;;;;;;;12.13;87.60;100123.97;10398161;28;20044;-78
2022/09/24 08:41:34;;;;;;;37.08;27.90;;;;;;;12.25;87.28;100121.16;10401823;28;20045;-77
2022/09/24 08:52:29;;;;;;;34.65;25.75;;;;;;;12.28;87.32;100135.19;10433957;28;20042;-79
2022/09/24 08:57:39;;;;;;;37.80;27.45;;;;;;;12.38;88.18;100137.91;10416373;28;20708;-78
2022/09/24 09:02:46;;;;;;;39.50;27.70;;;;;;;12.56;88.07;100136.22;10394570;28;20052;-79
2022/09/24 09:08:00;;;;;;;41.80;28.30;;;;;;;12.62;88.32;100137.47;10387425;28;20497;-79
2022/09/24 09:13:11;;;;;;;42.28;30.58;;;;;;;12.70;88.21;100137.59;10389806;28;20388;-79
2022/09/24 09:18:17;;;;;;;43.15;29.02;;;;;;;12.80;87.49;100142.97;10397963;28;20053;-78
2022/09/24 09:23:28;;;;;;;35.25;27.55;;;;;;;12.98;87.54;100143.94;10364589;28;20042;-79
2022/09/24 09:28:33;;;;;;;36.90;26.23;;;;;;;13.03;87.80;100147.03;10390788;28;20050;-79
2022/09/24 09:33:49;;;;;;;34.65;26.02;;;;;;;12.98;87.73;100135.84;10412237;28;20030;-78
2022/09/24 09:39:01;;;;;;;34.08;25.65;;;;;;;13.11;88.45;100143.63;10407445;28;20046;-79
2022/09/24 09:44:13;;;;;;;37.23;24.73;;;;;;;13.06;87.74;100143.19;10387762;28;20572;-79
2022/09/24 09:49:17;;;;;;;34.63;25.43;;;;;;;12.95;88.69;100136.13;10392905;28;20124;-78
2022/09/24 09:54:22;;;;;;;37.97;27.30;;;;;;;13.18;89.17;100141.16;10389034;28;20038;-79
2022/09/24 09:59:27;;;;;;;43.30;29.75;;;;;;;13.23;89.47;100136.19;10376772;28;20046;-78
2022/09/24 10:04:38;;;;;;;39.88;28.08;;;;;;;13.36;89.41;100139.41;10377180;28;20037;-77
2022/09/24 10:09:44;;;;;;;42.67;29.65;;;;;;;13.49;89.58;100134.56;10388512;28;20115;-78
2022/09/24 10:14:57;;;;;;;37.00;26.10;;;;;;;13.69;88.56;100134.44;10387246;28;20045;-78
2022/09/24 10:20:02;;;;;;;37.20;26.65;;;;;;;13.74;89.02;100136.69;10380366;28;20076;-78
2022/09/24 10:25:17;;;;;;;29.42;21.58;;;;;;;13.42;87.55;100127.19;10402780;28;20037;-78
2022/09/24 10:30:36;;;;;;;27.67;20.20;;;;;;;13.11;87.85;100137.34;10408726;28;20041;-78
2022/09/24 10:35:39;;;;;;;30.67;21.90;;;;;;;13.31;87.58;100130.91;10388442;28;20070;-78
2022/09/24 10:40:43;;;;;;;28.58;20.08;;;;;;;13.57;87.33;100130.25;10398481;28;20041;-78
2022/09/24 10:46:08;;;;;;;30.77;20.80;;;;;;;13.80;85.71;100133.41;10393843;28;20480;-78
2022/09/24 10:51:30;;;;;;;30.15;21.27;;;;;;;14.10;82.57;100133.03;10389033;28;20065;-78
2022/09/24 10:56:38;;;;;;;28.33;21.92;;;;;;;14.29;82.11;100137.44;10401449;28;20511;-77
2022/09/24 11:01:59;;;;;;;30.15;20.58;;;;;;;14.56;81.17;100132.97;10393757;28;20041;-79
2022/09/24 11:07:53;;;;;;;29.98;22.33;;;;;;;14.86;80.58;100134.38;10457609;22;20042;-80
2022/09/24 11:13:08;;;;;;;36.35;24.67;;;;;;;14.66;79.42;100136.44;10434617;28;20548;-79
2022/09/24 11:18:27;;;;;;;34.92;22.20;;;;;;;14.78;78.64;100137.91;10418322;28;20052;-79
2022/09/24 11:23:51;;;;;;;29.35;21.05;;;;;;;14.71;78.44;100138.69;10402769;28;20053;-80
2022/09/24 11:29:20;;;;;;;30.20;20.40;;;;;;;15.27;78.79;100134.63;10390420;28;20116;-79
2022/09/24 11:34:41;;;;;;;28.77;21.13;;;;;;;15.62;76.16;100136.34;10394956;28;20534;-80
2022/09/24 11:39:56;;;;;;;24.85;20.10;;;;;;;15.32;74.31;100126.88;10413315;28;20049;-80
2022/09/24 11:45:18;;;;;;;28.25;20.85;;;;;;;15.51;75.10;100136.66;10397205;28;20048;-81
2022/09/24 11:50:33;;;;;;;30.00;20.57;;;;;;;15.88;71.99;100130.88;10404341;28;20103;-79
2022/09/24 11:55:43;;;;;;;27.15;19.27;;;;;;;16.33;71.19;100129.63;10410590;28;20037;-78
2022/09/24 12:00:53;;;;;;;26.98;18.92;;;;;;;15.97;70.19;100120.91;10410355;28;20045;-79
2022/09/24 12:06:01;;;;;;;27.27;19.77;;;;;;;15.91;72.56;100125.13;10413077;28;20410;-80
2022/09/24 12:11:10;;;;;;;26.35;20.92;;;;;;;15.80;70.63;100117.31;10408807;28;20068;-79
2022/09/24 12:16:18;;;;;;;26.65;19.83;;;;;;;16.25;72.53;100117.91;10380880;28;20050;-82
2022/09/24 12:21:26;;;;;;;27.05;22.25;;;;;;;16.64;68.50;100114.53;10388435;28;20050;-80
2022/09/24 12:26:31;;;;;;;30.73;22.50;;;;;;;16.30;67.92;100121.00;10412859;28;20033;-79
2022/09/24 12:37:11;;;;;;;28.75;22.80;;;;;;;15.37;70.87;100123.75;10405275;28;20083;-80
2022/09/24 12:42:16;;;;;;;31.40;23.83;;;;;;;15.09;73.09;100123.06;10392869;28;20099;-79
2022/09/24 12:47:23;;;;;;;33.17;26.38;;;;;;;14.72;73.98;100121.44;10398398;28;20042;-80
2022/09/24 12:52:31;;;;;;;33.42;24.35;;;;;;;14.64;73.42;100116.81;10394357;28;20410;-81
2022/09/24 12:57:35;;;;;;;31.58;24.92;;;;;;;14.56;75.03;100127.56;10416544;28;20052;-78
2022/09/24 13:02:46;;;;;;;32.42;24.40;;;;;;;14.55;75.76;100120.47;10379206;28;20042;-78
2022/09/24 13:07:58;;;;;;;35.17;24.65;;;;;;;14.41;76.57;100116.47;10391819;28;20109;-78
2022/09/24 13:13:03;;;;;;;32.42;24.60;;;;;;;14.14;76.61;100118.22;10407310;28;20041;-79
2022/09/24 13:18:23;;;;;;;31.40;22.38;;;;;;;13.86;76.44;100105.78;10406491;28;20050;-83
2022/09/24 13:23:34;;;;;;;29.90;23.13;;;;;;;14.13;77.07;100104.88;10414917;28;20068;-80
2022/09/24 13:28:51;;;;;;;33.00;20.10;;;;;;;14.01;75.17;100108.78;10377687;28;20065;-80
2022/09/24 13:34:01;;;;;;;30.02;21.67;;;;;;;13.90;75.02;100113.44;10378976;28;20084;-80
2022/09/24 13:39:13;;;;;;;31.05;22.45;;;;;;;14.29;78.23;100110.44;10395357;28;20058;-81
2022/09/24 13:44:21;;;;;;;34.53;22.75;;;;;;;14.10;77.48;100108.75;10383497;28;20049;-80
2022/09/24 13:49:30;;;;;;;32.53;23.13;;;;;;;13.99;78.30;100114.38;10407234;28;20053;-80
2022/09/24 13:54:35;;;;;;;29.70;23.20;;;;;;;13.72;78.30;100115.25;10413787;28;20044;-81
2022/09/24 13:59:38;;;;;;;33.30;25.20;;;;;;;13.54;81.22;100111.66;10426190;28;20049;-82
2022/09/24 14:04:45;;;;;;;37.47;26.95;;;;;;;13.35;83.91;100117.97;10422887;28;20030;-80
2022/09/24 14:09:50;;;;;;;37.60;25.48;;;;;;;13.40;86.13;100115.69;10421095;28;20065;-80
2022/09/24 14:14:57;;;;;;;47.50;32.00;;;;;;;13.60;87.47;100111.91;10405469;28;20033;-82
2022/09/24 14:20:01;;;;;;;45.42;31.15;;;;;;;13.90;88.14;100116.13;10397877;28;20049;-78
2022/09/24 14:25:09;;;;;;;39.75;28.70;;;;;;;13.92;87.50;100108.72;10406120;28;20045;-81
2022/09/24 14:30:19;;;;;;;32.55;25.55;;;;;;;13.90;87.72;100110.75;10387755;28;20458;-79
2022/09/24 14:35:29;;;;;;;33.08;24.25;;;;;;;13.81;86.82;100110.78;10419271;28;20064;-80
2022/09/24 14:40:42;;;;;;;34.00;24.95;;;;;;;13.81;87.64;100106.22;10389924;28;20042;-80
2022/09/24 14:45:45;;;;;;;;;;;;;;;13.82;85.83;100109.78;10405356;28;20061;-79
2022/09/24 14:50:50;;;;;;;33.88;26.77;;;;;;;13.87;85.83;100108.31;10385837;28;19936;-79
2022/09/24 14:55:53;;;;;;;37.70;27.55;;;;;;;13.89;83.64;100110.88;10401908;28;20418;-79
2022/09/24 15:00:59;;;;;;;36.70;27.40;;;;;;;13.86;82.63;100117.44;10400338;28;20040;-81
2022/09/24 15:06:06;;;;;;;39.20;29.20;;;;;;;13.79;82.21;100110.09;10392242;28;20050;-79
2022/09/24 15:11:16;;;;;;;41.75;29.90;;;;;;;13.75;82.47;100109.53;10409508;28;20045;-78
2022/09/24 15:16:27;;;;;;;39.45;30.10;;;;;;;13.88;82.87;100110.03;10418661;28;20044;-80
2022/09/24 15:21:31;;;;;;;46.08;32.85;;;;;;;13.97;83.38;100113.66;10412944;28;20037;-82
2022/09/24 15:26:36;;;;;;;45.65;32.88;;;;;;;13.98;83.48;100107.25;10387691;28;20413;-78
2022/09/24 15:31:39;;;;;;;46.03;31.73;;;;;;;13.99;83.70;100108.97;10397866;28;20067;-79
2022/09/24 15:36:44;;;;;;;46.47;33.65;;;;;;;13.99;84.36;100108.09;10418586;28;20498;-81
2022/09/24 15:41:47;;;;;;;45.65;32.63;;;;;;;14.00;84.07;100107.94;10419467;28;20041;-82
2022/09/24 15:46:51;;;;;;;42.75;32.53;;;;;;;13.97;84.25;100110.97;10388751;28;20096;-79
2022/09/24 15:51:59;;;;;;;45.55;32.35;;;;;;;13.99;84.28;100111.66;10405330;28;20049;-79
2022/09/24 15:57:03;;;;;;;37.03;27.88;;;;;;;13.84;83.91;100107.78;10392180;28;20158;-79
2022/09/24 16:02:16;;;;;;;38.20;26.42;;;;;;;13.93;83.53;100112.25;10391291;28;20072;-80
2022/09/24 16:07:21;;;;;;;24.73;19.92;;;;;;;13.77;82.45;100112.94;10397786;28;20080;-81
2022/09/24 16:12:26;;;;;;;30.08;21.40;;;;;;;13.76;82.26;100116.63;10402968;28;20077;-79
2022/09/24 16:17:30;;;;;;;33.80;24.10;;;;;;;13.76;82.67;100113.94;10393028;28;20041;-80
2022/09/24 16:22:35;;;;;;;36.95;26.63;;;;;;;13.65;83.27;100116.84;10384860;28;20154;-81
2022/09/24 16:27:39;;;;;;;33.78;25.60;;;;;;;13.66;83.06;100124.81;10391735;28;20046;-82
2022/09/24 16:32:42;;;;;;;36.60;26.27;;;;;;;13.61;83.14;100119.00;10387347;28;20050;-83
2022/09/24 16:37:47;;;;;;;32.08;22.80;;;;;;;13.47;82.65;100123.06;10401776;28;20192;-82
2022/09/24 16:42:50;;;;;;;31.35;23.80;;;;;;;13.35;82.87;100123.34;10390080;28;20049;-81
2022/09/24 16:47:53;;;;;;;27.95;23.00;;;;;;;13.23;83.14;100122.69;10383530;28;20038;-80
2022/09/24 16:52:57;;;;;;;29.88;20.90;;;;;;;13.20;82.30;100121.16;10369555;28;20061;-81
2022/09/24 16:58:00;;;;;;;27.33;20.55;;;;;;;13.16;82.55;100130.50;10376579;28;20073;-82
2022/09/24 17:03:03;;;;;;;30.88;21.25;;;;;;;13.03;83.24;100120.06;10365132;28;20058;-81
2022/09/24 17:08:07;;;;;;;32.05;23.85;;;;;;;13.04;83.43;100135.25;10371394;28;20053;-81
2022/09/24 17:13:10;;;;;;;36.15;25.88;;;;;;;13.01;84.19;100127.47;10368703;28;20049;-80
2022/09/24 17:18:13;;;;;;;39.85;28.70;;;;;;;13.08;84.74;100130.41;10392669;28;20049;-82
2022/09/24 17:23:18;;;;;;;39.30;27.45;;;;;;;12.93;85.33;100130.03;10397402;28;20049;-81
2022/09/24 17:28:21;;;;;;;38.03;28.13;;;;;;;12.98;85.18;100122.34;10374186;28;20080;-82
2022/09/24 17:33:24;;;;;;;40.85;29.33;;;;;;;12.85;85.45;100121.81;10396761;28;20050;-81
2022/09/24 17:38:46;;;;;;;40.60;30.10;;;;;;;12.77;85.65;100132.47;10414700;28;20384;-82
2022/09/24 17:43:50;;;;;;;41.55;28.33;;;;;;;12.81;85.52;100133.91;10411328;28;20457;-81
2022/09/24 17:48:55;;;;;;;45.90;30.83;;;;;;;12.83;85.32;100142.66;10409854;28;20095;-82
2022/09/24 17:54:01;;;;;;;49.75;34.58;;;;;;;12.77;85.85;100140.56;10402396;28;20092;-84
2022/09/24 17:59:03;;;;;;;52.13;37.58;;;;;;;12.73;85.97;100142.72;10392499;28;20076;-83
2022/09/24 18:04:10;;;;;;;58.75;40.53;;;;;;;12.72;86.35;100143.69;10394020;28;20529;-82
2022/09/24 18:09:15;;;;;;;57.72;40.75;;;;;;;12.64;86.74;100142.69;10390384;28;20046;-82
2022/09/24 18:14:20;;;;;;;62.35;41.80;;;;;;;12.51;87.29;100151.09;10411252;28;20065;-82
2022/09/24 18:19:23;;;;;;;60.20;41.72;;;;;;;12.58;86.98;100154.91;10391808;28;20042;-82
2022/09/24 18:24:27;;;;;;;58.65;41.90;;;;;;;12.52;86.76;100158.19;10401539;28;20049;-82
2022/09/24 18:29:30;;;;;;;60.28;39.75;;;;;;;12.53;86.75;100168.81;10422041;28;20072;-83
2022/09/24 18:34:33;;;;;;;62.40;40.22;;;;;;;12.42;87.10;100173.47;10386060;28;20125;-81
2022/09/24 18:39:37;;;;;;;66.38;44.13;;;;;;;12.41;87.20;100177.19;10384350;28;20104;-81
2022/09/24 18:44:40;;;;;;;71.05;45.63;;;;;;;12.49;87.36;100171.94;10381034;28;20065;-81
2022/09/24 18:49:43;;;;;;;68.53;45.03;;;;;;;12.51;87.28;100178.03;10404878;28;20092;-83
2022/09/24 18:54:47;;;;;;;65.75;43.55;;;;;;;12.48;87.38;100168.41;10380662;28;20082;-83
2022/09/24 18:59:50;;;;;;;64.60;42.78;;;;;;;12.53;87.37;100167.94;10381119;28;20072;-84
2022/09/24 19:04:53;;;;;;;63.67;43.00;;;;;;;12.53;87.30;100170.66;10412810;28;20064;-81
2022/09/24 19:09:57;;;;;;;64.30;42.88;;;;;;;12.56;87.14;100189.22;10393905;28;20491;-82
2022/09/24 19:15:00;;;;;;;65.47;42.28;;;;;;;12.62;87.02;100193.22;10407886;28;20062;-80
2022/09/24 19:20:03;;;;;;;65.93;41.97;;;;;;;12.52;87.33;100190.50;10410581;28;20505;-80
2022/09/24 19:25:09;;;;;;;63.58;42.88;;;;;;;12.60;87.27;100191.50;10397215;28;20041;-80
2022/09/24 19:30:12;;;;;;;46.85;31.88;;;;;;;12.32;87.42;100195.03;10369228;28;21035;-83
2022/09/24 19:35:15;;;;;;;47.65;29.10;;;;;;;12.34;85.71;100191.22;10394311;28;20100;-82
2022/09/24 19:40:19;;;;;;;38.47;27.48;;;;;;;12.52;84.77;100199.44;10405775;28;20057;-81
2022/09/24 19:45:22;;;;;;;32.95;23.42;;;;;;;12.30;85.18;100191.63;10380189;28;20084;-81
2022/09/24 19:50:25;;;;;;;29.73;21.33;;;;;;;12.41;84.27;100196.03;10393772;28;20755;-82
2022/09/24 19:55:30;;;;;;;29.20;20.73;;;;;;;12.53;84.85;100202.97;10396857;28;20049;-81
2022/09/24 20:00:33;;;;;;;24.02;17.80;;;;;;;12.32;85.01;100198.59;10386762;28;20053;-83
2022/09/24 20:05:37;;;;;;;18.10;14.52;;;;;;;12.23;85.14;100202.09;10390796;28;20065;-82
2022/09/24 20:10:43;;;;;;;18.33;14.48;;;;;;;12.19;85.53;100214.13;10380470;28;20052;-80
2022/09/24 20:15:46;;;;;;;14.38;11.63;;;;;;;11.60;86.73;100206.84;10389941;28;20081;-80
2022/09/24 20:20:49;;;;;;;13.57;11.00;;;;;;;12.22;84.67;100207.59;10398024;28;20124;-82
2022/09/24 20:31:19;;;;;;;15.05;12.15;;;;;;;12.25;84.25;100210.00;10396858;28;20150;-81
2022/09/24 20:36:22;;;;;;;16.60;13.43;;;;;;;12.23;84.48;100203.91;10397142;28;20037;-81
2022/09/24 20:41:28;;;;;;;18.63;15.15;;;;;;;12.20;84.64;100202.34;10373877;28;20506;-81
2022/09/24 20:46:31;;;;;;;17.75;15.32;;;;;;;12.29;84.94;100211.50;10396895;28;20065;-80
2022/09/24 20:51:33;;;;;;;17.10;13.90;;;;;;;12.08;85.03;100209.69;10402163;28;20506;-81
2022/09/24 20:56:37;;;;;;;19.50;14.90;;;;;;;12.12;84.94;100215.66;10405964;28;20124;-80
2022/09/24 21:01:42;;;;;;;19.92;16.10;;;;;;;12.10;85.48;100217.66;10393815;28;20128;-82
2022/09/24 21:06:45;;;;;;;23.17;18.05;;;;;;;12.11;85.22;100214.81;10390772;28;20045;-82
2022/09/24 21:11:51;;;;;;;19.92;16.63;;;;;;;12.20;85.35;100223.03;10395608;28;20116;-82
2022/09/24 21:16:55;;;;;;;24.30;18.35;;;;;;;12.20;85.84;100226.59;10394689;28;20125;-81
2022/09/24 21:22:00;;;;;;;29.52;20.45;;;;;;;11.98;86.09;100214.19;10400297;28;20080;-81
2022/09/24 21:27:06;;;;;;;28.83;21.80;;;;;;;11.77;86.47;100208.91;10398699;28;20073;-82
2022/09/24 21:32:09;;;;;;;34.22;23.85;;;;;;;12.07;86.29;100217.94;10395584;28;20046;-82
2022/09/24 21:37:14;;;;;;;40.30;27.52;;;;;;;12.12;86.76;100221.91;10404285;28;20112;-82
2022/09/24 21:42:18;;;;;;;43.55;27.40;;;;;;;12.20;86.71;100212.28;10390578;28;20076;-82
2022/09/24 21:47:21;;;;;;;44.55;29.67;;;;;;;12.03;86.63;100216.50;10380347;28;20049;-82
2022/09/24 21:52:26;;;;;;;49.03;31.23;;;;;;;12.13;86.57;100223.59;10381722;28;20457;-83
2022/09/24 21:57:30;;;;;;;52.75;32.75;;;;;;;12.20;86.71;100223.03;10369039;28;20053;-83
2022/09/24 22:02:33;;;;;;;50.70;33.33;;;;;;;12.16;86.70;100217.94;10397597;28;20053;-82
2022/09/24 22:07:37;;;;;;;50.90;32.20;;;;;;;12.16;86.89;100219.78;10364383;28;20046;-82
2022/09/24 22:12:42;;;;;;;51.05;32.67;;;;;;;12.17;87.05;100222.31;10384454;28;20482;-82
2022/09/24 22:17:45;;;;;;;53.92;34.33;;;;;;;12.17;87.09;100221.47;10373662;28;20084;-82
2022/09/24 22:22:48;;;;;;;53.55;33.53;;;;;;;12.13;87.02;100217.38;10396541;28;20088;-82
2022/09/24 22:27:53;;;;;;;48.42;31.83;;;;;;;11.94;86.34;100212.78;10387455;28;20050;-83
2022/09/24 22:32:56;;;;;;;47.72;31.60;;;;;;;11.86;86.36;100210.78;10390391;28;20446;-82
2022/09/24 22:37:59;;;;;;;50.40;31.67;;;;;;;11.60;86.09;100212.22;10397713;28;20057;-82
2022/09/24 22:43:03;;;;;;;55.47;34.40;;;;;;;11.57;86.15;100213.34;10409678;28;20076;-83
2022/09/24 22:48:06;;;;;;;59.45;34.63;;;;;;;11.46;86.21;100222.38;10404332;28;20042;-84
2022/09/24 22:53:09;;;;;;;62.10;37.42;;;;;;;11.41;86.03;100229.13;10402231;28;20049;-84
2022/09/24 22:58:13;;;;;;;56.92;35.33;;;;;;;11.48;85.96;100228.47;10393035;28;20065;-83
2022/09/24 23:03:16;;;;;;;60.30;36.35;;;;;;;11.53;86.17;100229.91;10403640;28;20070;-82
2022/09/24 23:08:19;;;;;;;55.45;35.83;;;;;;;11.62;86.20;100219.19;10414280;28;20077;-83
2022/09/24 23:13:23;;;;;;;58.63;35.58;;;;;;;11.57;86.05;100217.88;10401649;28;20530;-83